createdAt,value
2018-11-23T00:00:54.387Z,99554.68
2018-11-23T00:03:23.633Z,99554.52
2018-11-23T00:05:51.860Z,99557.13
2018-11-23T00:08:20.044Z,99559.55
2018-11-23T00:10:49.578Z,99559.83
2018-11-23T00:13:18.144Z,99564.54
2018-11-23T00:15:46.423Z,99561.44
2018-11-23T00:18:14.652Z,99558.00
2018-11-23T00:20:43.451Z,99564.05
2018-11-23T00:23:11.792Z,99559.61
2018-11-23T00:25:40.595Z,99558.27
2018-11-23T00:28:09.451Z,99555.16
2018-11-23T00:30:38.966Z,99557.41
2018-11-23T00:33:07.312Z,99548.35
2018-11-23T00:35:36.257Z,99555.73
2018-11-23T00:38:05.593Z,99550.59
2018-11-23T00:40:35.888Z,99546.18
2018-11-23T00:43:04.355Z,99551.59
2018-11-23T00:45:35.666Z,99549.95
2018-11-23T00:48:03.467Z,99551.36
2018-11-23T00:50:32.457Z,99553.97
2018-11-23T00:53:01.998Z,99557.95
2018-11-23T00:55:31.068Z,99554.13
2018-11-23T00:57:59.359Z,99549.95
2018-11-23T01:00:32.199Z,99555.23
2018-11-23T01:03:01.385Z,99547.80
2018-11-23T01:05:29.839Z,99551.77
2018-11-23T01:07:58.319Z,99552.78
2018-11-23T01:10:27.929Z,99546.28
2018-11-23T01:12:56.941Z,99553.47
2018-11-23T01:15:25.216Z,99554.25
2018-11-23T01:17:53.965Z,99542.71
2018-11-23T01:20:23.495Z,99548.44
2018-11-23T01:22:52.116Z,99543.08
2018-11-23T01:25:21.656Z,99548.67
2018-11-23T01:27:51.049Z,99547.73
2018-11-23T01:30:22.276Z,99551.55
2018-11-23T01:32:50.533Z,99562.81
2018-11-23T01:35:18.741Z,99562.62
2018-11-23T01:37:46.922Z,99564.36
2018-11-23T01:40:16.748Z,99563.05
2018-11-23T01:42:45.283Z,99568.06
2018-11-23T01:45:13.976Z,99571.20
2018-11-23T01:47:42.154Z,99563.22
2018-11-23T01:50:13.616Z,99554.46
2018-11-23T01:52:42.081Z,99552.45
2018-11-23T01:55:11.368Z,99542.38
2018-11-23T01:57:40.368Z,99545.44
2018-11-23T02:00:13.347Z,99542.64
2018-11-23T02:02:41.628Z,99543.41
2018-11-23T02:05:10.244Z,99547.52
2018-11-23T02:07:39.004Z,99547.28
2018-11-23T02:10:08.026Z,99548.11
2018-11-23T02:12:36.484Z,99542.06
2018-11-23T02:15:05.338Z,99531.45
2018-11-23T02:17:33.532Z,99527.08
2018-11-23T02:20:01.737Z,99524.91
2018-11-23T02:22:29.927Z,99528.02
2018-11-23T02:24:58.189Z,99529.31
2018-11-23T02:27:26.381Z,99523.64
2018-11-23T02:29:54.591Z,99523.59
2018-11-23T02:32:22.809Z,99524.54
2018-11-23T02:34:51.000Z,99525.41
2018-11-23T02:37:19.192Z,99532.37
2018-11-23T02:39:47.421Z,99529.07
2018-11-23T02:42:15.639Z,99521.90
2018-11-23T02:44:43.828Z,99528.11
2018-11-23T02:47:12.006Z,99526.25
2018-11-23T02:49:40.213Z,99521.48
2018-11-23T02:52:08.413Z,99522.41
2018-11-23T02:54:36.635Z,99528.58
2018-11-23T02:57:05.473Z,99522.44
2018-11-23T02:59:33.698Z,99520.70
2018-11-23T03:02:01.943Z,99514.23
2018-11-23T03:04:30.191Z,99515.86
2018-11-23T03:06:58.349Z,99513.86
2018-11-23T03:09:26.532Z,99515.16
2018-11-23T03:11:54.725Z,99527.67
2018-11-23T03:14:22.949Z,99517.70
2018-11-23T03:16:51.139Z,99518.60
2018-11-23T03:19:19.336Z,99525.56
2018-11-23T03:21:47.588Z,99530.96
2018-11-23T03:24:15.768Z,99533.09
2018-11-23T03:26:44.044Z,99531.83
2018-11-23T03:29:12.232Z,99530.16
2018-11-23T03:31:40.437Z,99523.67
2018-11-23T03:34:08.666Z,99527.65
2018-11-23T03:36:36.932Z,99523.88
2018-11-23T03:39:07.929Z,99513.94
2018-11-23T03:41:36.133Z,99516.45
2018-11-23T03:44:05.132Z,99517.62
2018-11-23T03:46:34.270Z,99509.63
2018-11-23T03:49:03.852Z,99514.45
2018-11-23T03:51:32.102Z,99511.91
2018-11-23T03:54:00.435Z,99515.47
2018-11-23T03:56:28.720Z,99514.55
2018-11-23T03:58:57.353Z,99520.80
2018-11-23T04:01:25.660Z,99516.08
2018-11-23T04:03:53.911Z,99511.75
2018-11-23T04:06:22.092Z,99514.33
2018-11-23T04:08:50.587Z,99508.23
2018-11-23T04:11:18.857Z,99502.12
2018-11-23T04:13:49.015Z,99496.02
2018-11-23T04:16:17.253Z,99486.86
2018-11-23T04:18:47.578Z,99493.31
2018-11-23T04:21:18.775Z,99493.79
2018-11-23T04:23:48.688Z,99491.17
2018-11-23T04:26:24.629Z,99491.81
2018-11-23T04:28:48.445Z,99494.89
2018-11-23T04:31:16.970Z,99497.11
2018-11-23T04:33:46.803Z,99494.46
2018-11-23T04:36:15.108Z,99486.69
2018-11-23T04:38:43.348Z,99484.67
2018-11-23T04:41:11.520Z,99486.08
2018-11-23T04:43:39.700Z,99489.51
2018-11-23T04:46:07.908Z,99488.72
2018-11-23T04:48:36.203Z,99482.72
2018-11-23T04:51:05.544Z,99484.09
2018-11-23T04:53:35.064Z,99481.89
2018-11-23T04:56:05.031Z,99480.01
2018-11-23T04:58:34.723Z,99487.03
2018-11-23T05:01:05.194Z,99481.09
2018-11-23T05:03:34.973Z,99478.03
2018-11-23T05:06:04.860Z,99490.55
2018-11-23T05:08:34.749Z,99484.95
2018-11-23T05:11:04.744Z,99480.23
2018-11-23T05:13:32.942Z,99472.95
2018-11-23T05:16:01.165Z,99470.86
2018-11-23T05:18:29.357Z,99473.45
2018-11-23T05:20:57.896Z,99473.06
2018-11-23T05:23:26.183Z,99473.06
2018-11-23T05:25:54.377Z,99471.79
2018-11-23T05:28:22.563Z,99474.30
2018-11-23T05:30:50.752Z,99467.41
2018-11-23T05:33:19.268Z,99476.05
2018-11-23T05:35:47.456Z,99477.36
2018-11-23T05:38:15.666Z,99472.45
2018-11-23T05:40:43.915Z,99475.49
2018-11-23T05:43:12.088Z,99470.55
2018-11-23T05:45:40.272Z,99471.92
2018-11-23T05:48:08.494Z,99472.53
2018-11-23T05:50:36.705Z,99473.27
2018-11-23T05:53:04.904Z,99474.63
2018-11-23T05:55:33.099Z,99469.58
2018-11-23T05:58:01.328Z,99463.16
2018-11-23T06:00:30.825Z,99465.50
2018-11-23T06:02:59.210Z,99475.11
2018-11-23T06:05:27.432Z,99474.73
2018-11-23T06:07:55.633Z,99464.80
2018-11-23T06:10:24.125Z,99470.91
2018-11-23T06:12:52.337Z,99467.03
2018-11-23T06:15:22.027Z,99472.69
2018-11-23T06:17:50.592Z,99468.80
2018-11-23T06:20:22.464Z,99472.77
2018-11-23T06:22:51.525Z,99475.00
2018-11-23T06:25:45.335Z,99474.95
2018-11-23T06:28:13.521Z,99472.34
2018-11-23T06:30:41.716Z,99474.98
2018-11-23T06:33:21.276Z,99471.14
2018-11-23T06:35:49.457Z,99468.14
2018-11-23T06:38:17.627Z,99463.44
2018-11-23T06:40:45.816Z,99464.40
2018-11-23T06:43:13.998Z,99455.75
2018-11-23T06:45:43.556Z,99457.47
2018-11-23T06:48:12.079Z,99458.32
2018-11-23T06:50:40.367Z,99462.67
2018-11-23T06:53:08.847Z,99463.03
2018-11-23T06:55:37.034Z,99467.06
2018-11-23T06:58:05.519Z,99466.58
2018-11-23T07:00:33.714Z,99462.90
2018-11-23T07:03:02.039Z,99473.02
2018-11-23T07:05:30.204Z,99474.41
2018-11-23T07:07:59.309Z,99481.38
2018-11-23T07:10:27.476Z,99484.92
2018-11-23T07:12:55.702Z,99480.29
2018-11-23T07:15:23.968Z,99482.45
2018-11-23T07:17:52.241Z,99484.31
2018-11-23T07:20:20.448Z,99485.25
2018-11-23T07:22:49.393Z,99480.47
2018-11-23T07:25:17.665Z,99478.69
2018-11-23T07:27:45.841Z,99480.06
2018-11-23T07:30:17.964Z,99474.02
2018-11-23T07:32:46.375Z,99474.38
2018-11-23T07:35:15.253Z,99470.50
2018-11-23T07:37:43.439Z,99474.66
2018-11-23T07:40:24.755Z,99483.27
2018-11-23T07:42:54.012Z,99486.64
2018-11-23T07:45:22.178Z,99486.46
2018-11-23T07:47:50.362Z,99491.63
2018-11-23T07:50:19.337Z,99481.30
2018-11-23T07:52:47.557Z,99483.88
2018-11-23T07:55:15.747Z,99485.41
2018-11-23T07:57:43.961Z,99483.38
2018-11-23T08:00:14.885Z,99480.53
2018-11-23T08:02:43.602Z,99480.27
2018-11-23T08:05:14.595Z,99479.36
2018-11-23T08:07:42.789Z,99474.19
2018-11-23T08:10:11.323Z,99471.48
2018-11-23T08:12:40.995Z,99466.17
2018-11-23T08:15:15.325Z,99465.39
2018-11-23T08:17:43.547Z,99460.74
2018-11-23T08:20:13.710Z,99457.77
2018-11-23T08:22:42.084Z,99459.70
2018-11-23T08:25:11.513Z,99462.51
2018-11-23T08:27:40.277Z,99468.48
2018-11-23T08:30:14.040Z,99476.95
2018-11-23T08:32:42.231Z,99479.15
2018-11-23T08:35:10.630Z,99470.25
2018-11-23T08:37:40.266Z,99463.43
2018-11-23T08:40:18.241Z,99470.09
2018-11-23T08:42:47.375Z,99470.34
2018-11-23T08:45:18.887Z,99475.66
2018-11-23T08:47:47.167Z,99476.61
2018-11-23T08:50:17.965Z,99473.18
2018-11-23T08:52:46.196Z,99466.77
2018-11-23T08:55:15.168Z,99459.70
2018-11-23T08:57:43.600Z,99453.89
2018-11-23T09:00:19.793Z,99450.09
2018-11-23T09:02:49.219Z,99444.04
2018-11-23T09:05:18.100Z,99441.92
2018-11-23T09:07:47.288Z,99447.04
2018-11-23T09:10:17.556Z,99442.95
2018-11-23T09:12:47.671Z,99451.50
2018-11-23T09:15:16.217Z,99451.34
2018-11-23T09:17:45.716Z,99441.44
2018-11-23T09:20:14.612Z,99447.93
2018-11-23T09:22:42.875Z,99448.38
2018-11-23T09:25:14.580Z,99453.44
2018-11-23T09:27:42.761Z,99449.61
2018-11-23T09:30:14.701Z,99441.34
2018-11-23T09:32:43.266Z,99443.89
2018-11-23T09:35:11.440Z,99444.73
2018-11-23T09:37:40.457Z,99443.38
2018-11-23T09:40:10.871Z,99440.14
2018-11-23T09:42:39.546Z,99436.06
2018-11-23T09:45:09.657Z,99434.86
2018-11-23T09:47:37.938Z,99435.92
2018-11-23T09:50:08.577Z,99443.57
2018-11-23T09:52:38.384Z,99440.81
2018-11-23T09:55:07.069Z,99434.22
2018-11-23T09:57:35.231Z,99424.48
2018-11-23T10:00:03.468Z,99412.31
2018-11-23T10:02:31.670Z,99407.77
2018-11-23T10:04:59.862Z,99409.22
2018-11-23T10:07:28.118Z,99411.89
2018-11-23T10:09:56.282Z,99409.33
2018-11-23T10:12:24.461Z,99408.40
2018-11-23T10:14:52.788Z,99405.51
2018-11-23T10:17:20.967Z,99402.96
2018-11-23T10:19:49.168Z,99406.20
2018-11-23T10:22:17.368Z,99404.11
2018-11-23T10:24:45.564Z,99406.10
2018-11-23T10:27:13.777Z,99400.10
2018-11-23T10:29:42.013Z,99392.59
2018-11-23T10:32:10.210Z,99390.34
2018-11-23T10:34:38.378Z,99388.31
2018-11-23T10:37:06.610Z,99377.50
2018-11-23T10:39:34.797Z,99381.31
2018-11-23T10:42:02.961Z,99371.16
2018-11-23T10:44:31.182Z,99368.16
2018-11-23T10:46:59.371Z,99369.45
2018-11-23T10:49:27.560Z,99362.08
2018-11-23T10:51:55.757Z,99352.77
2018-11-23T10:54:23.936Z,99346.32
2018-11-23T10:56:52.108Z,99340.84
2018-11-23T10:59:20.426Z,99344.92
2018-11-23T11:01:53.978Z,99336.30
2018-11-23T11:04:28.304Z,99328.09
2018-11-23T11:07:00.771Z,99325.45
2018-11-23T11:09:29.076Z,99325.08
2018-11-23T11:11:57.245Z,99320.37
2018-11-23T11:14:25.417Z,99307.02
2018-11-23T11:16:53.626Z,99307.84
2018-11-23T11:19:21.796Z,99313.91
2018-11-23T11:21:50.025Z,99310.44
2018-11-23T11:24:18.249Z,99308.05
2018-11-23T11:26:46.440Z,99306.63
2018-11-23T11:29:14.642Z,99292.66
2018-11-23T11:31:43.111Z,99292.63
2018-11-23T11:34:11.297Z,99295.38
2018-11-23T11:36:39.444Z,99294.33
2018-11-23T11:39:10.478Z,99287.79
2018-11-23T11:41:38.706Z,99286.69
2018-11-23T11:44:06.906Z,99279.77
2018-11-23T11:46:35.952Z,99276.84
2018-11-23T11:49:04.245Z,99275.34
2018-11-23T11:51:32.399Z,99259.42
2018-11-23T11:54:00.623Z,99262.34
2018-11-23T11:56:28.805Z,99259.30
2018-11-23T11:58:56.983Z,99249.48
2018-11-23T12:01:26.336Z,99249.30
2018-11-23T12:03:55.035Z,99253.86
2018-11-23T12:06:23.244Z,99252.75
2018-11-23T12:08:52.902Z,99237.77
2018-11-23T12:11:21.142Z,99231.46
2018-11-23T12:13:49.365Z,99230.33
2018-11-23T12:16:17.619Z,99220.36
2018-11-23T12:18:45.819Z,99219.14
2018-11-23T12:21:14.025Z,99219.89
2018-11-23T12:23:42.189Z,99220.19
2018-11-23T12:26:10.357Z,99216.60
2018-11-23T12:28:38.560Z,99217.59
2018-11-23T12:31:06.776Z,99200.87
2018-11-23T12:33:34.947Z,99202.45
2018-11-23T12:36:03.162Z,99197.98
2018-11-23T12:38:31.345Z,99187.66
2018-11-23T12:40:59.521Z,99193.33
2018-11-23T12:43:27.704Z,99187.92
2018-11-23T12:45:55.905Z,99185.27
2018-11-23T12:48:24.091Z,99186.22
2018-11-23T12:50:52.286Z,99179.85
2018-11-23T12:53:20.464Z,99177.80
2018-11-23T12:55:48.629Z,99173.83
2018-11-23T12:58:16.848Z,99165.44
2018-11-23T13:00:45.016Z,99164.68
2018-11-23T13:03:13.207Z,99160.06
2018-11-23T13:05:41.396Z,99158.22
2018-11-23T13:08:09.575Z,99159.55
2018-11-23T13:10:37.959Z,99150.77
2018-11-23T13:13:06.134Z,99157.97
2018-11-23T13:15:34.317Z,99157.98
2018-11-23T13:18:03.288Z,99152.35
2018-11-23T13:20:31.448Z,99148.57
2018-11-23T13:22:59.645Z,99146.75
2018-11-23T13:25:30.046Z,99144.98
2018-11-23T13:27:58.335Z,99149.78
2018-11-23T13:30:29.993Z,99153.28
2018-11-23T13:32:58.226Z,99155.06
2018-11-23T13:35:26.416Z,99141.47
2018-11-23T13:37:54.632Z,99137.61
2018-11-23T13:40:24.149Z,99131.84
2018-11-23T13:42:53.069Z,99130.31
2018-11-23T13:45:22.520Z,99131.27
2018-11-23T13:47:50.760Z,99125.30
2018-11-23T13:50:20.186Z,99124.00
2018-11-23T13:52:49.175Z,99121.12
2018-11-23T13:55:17.381Z,99117.16
2018-11-23T13:57:45.572Z,99114.69
2018-11-23T14:00:16.156Z,99109.70
2018-11-23T14:02:44.877Z,99101.70
2018-11-23T14:05:15.367Z,99110.11
2018-11-23T14:07:44.470Z,99103.97
2018-11-23T14:10:14.603Z,99104.25
2018-11-23T14:12:43.682Z,99099.15
2018-11-23T14:15:14.359Z,99092.98
2018-11-23T14:17:43.783Z,99093.67
2018-11-23T14:20:13.118Z,99091.00
2018-11-23T14:22:41.277Z,99088.91
2018-11-23T14:25:11.441Z,99091.48
2018-11-23T14:27:39.708Z,99079.10
2018-11-23T14:30:12.272Z,99083.27
2018-11-23T14:32:40.745Z,99080.13
2018-11-23T14:35:10.867Z,99081.45
2018-11-23T14:37:39.597Z,99082.92
2018-11-23T14:40:08.847Z,99088.45
2018-11-23T14:42:37.012Z,99091.44
2018-11-23T14:45:08.040Z,99094.59
2018-11-23T14:47:36.212Z,99094.81
2018-11-23T14:50:04.748Z,99091.75
2018-11-23T14:52:33.004Z,99086.57
2018-11-23T14:55:01.205Z,99090.62
2018-11-23T14:57:29.389Z,99085.84
2018-11-23T14:59:57.573Z,99090.51
2018-11-23T15:02:25.794Z,99086.33
2018-11-23T15:04:53.967Z,99075.65
2018-11-23T15:07:22.140Z,99075.67
2018-11-23T15:09:50.339Z,99078.05
2018-11-23T15:12:18.521Z,99075.59
2018-11-23T15:14:46.808Z,99076.66
2018-11-23T15:17:15.032Z,99068.32
2018-11-23T15:19:43.201Z,99056.47
2018-11-23T15:22:11.372Z,99057.16
2018-11-23T15:24:39.550Z,99058.09
2018-11-23T15:27:07.720Z,99058.78
2018-11-23T15:29:36.702Z,99053.52
2018-11-23T15:32:04.892Z,99056.23
2018-11-23T15:34:33.067Z,99052.97
2018-11-23T15:37:01.629Z,99045.47
2018-11-23T15:39:29.822Z,99048.59
2018-11-23T15:41:57.995Z,99045.61
2018-11-23T15:44:26.196Z,99053.29
2018-11-23T15:46:54.383Z,99053.52
2018-11-23T15:49:22.592Z,99047.10
2018-11-23T15:51:50.795Z,99048.79
2018-11-23T15:54:18.977Z,99040.53
2018-11-23T15:56:47.169Z,99040.05
2018-11-23T15:59:15.361Z,99037.80
2018-11-23T16:01:43.780Z,99034.37
2018-11-23T16:04:13.069Z,99034.70
2018-11-23T16:06:41.236Z,99035.06
2018-11-23T16:09:11.939Z,99031.78
2018-11-23T16:11:40.170Z,99031.44
2018-11-23T16:14:08.370Z,99027.91
2018-11-23T16:16:36.712Z,99019.34
2018-11-23T16:19:04.921Z,99016.28
2018-11-23T16:21:33.107Z,99013.27
2018-11-23T16:24:01.305Z,99006.81
2018-11-23T16:26:29.505Z,99012.10
2018-11-23T16:28:57.688Z,99010.06
2018-11-23T16:31:25.897Z,99009.94
2018-11-23T16:33:54.110Z,99018.05
2018-11-23T16:36:22.291Z,99016.64
2018-11-23T16:38:50.496Z,99016.54
2018-11-23T16:41:18.683Z,99021.08
2018-11-23T16:43:46.984Z,99016.00
2018-11-23T16:46:16.017Z,99010.59
2018-11-23T16:48:44.204Z,99013.28
2018-11-23T16:51:12.496Z,99006.12
2018-11-23T16:53:41.553Z,99008.40
2018-11-23T16:56:09.732Z,99003.47
2018-11-23T16:58:37.976Z,99003.56
2018-11-23T17:01:08.034Z,99004.06
2018-11-23T17:03:36.313Z,98995.03
2018-11-23T17:06:04.625Z,98991.70
2018-11-23T17:08:39.444Z,98982.52
2018-11-23T17:11:01.017Z,98984.66
2018-11-23T17:13:29.359Z,98979.55
2018-11-23T17:15:57.688Z,98972.02
2018-11-23T17:18:25.868Z,98974.16
2018-11-23T17:20:54.093Z,98978.50
2018-11-23T17:23:22.292Z,98981.65
2018-11-23T17:25:50.486Z,98974.33
2018-11-23T17:28:18.678Z,98969.00
2018-11-23T17:30:46.950Z,98965.59
2018-11-23T17:33:15.255Z,98959.75
2018-11-23T17:35:43.511Z,98958.58
2018-11-23T17:38:11.696Z,98955.63
2018-11-23T17:40:40.844Z,98953.34
2018-11-23T17:43:09.462Z,98944.69
2018-11-23T17:45:38.249Z,98945.73
2018-11-23T17:48:06.839Z,98941.01
2018-11-23T17:50:36.243Z,98934.45
2018-11-23T17:53:04.735Z,98932.55
2018-11-23T17:55:32.964Z,98932.86
2018-11-23T17:58:01.884Z,98930.88
2018-11-23T18:00:38.844Z,98928.89
2018-11-23T18:03:01.485Z,98922.70
2018-11-23T18:05:30.618Z,98917.88
2018-11-23T18:07:59.156Z,98919.96
2018-11-23T18:10:28.763Z,98920.34
2018-11-23T18:12:58.467Z,98925.03
2018-11-23T18:15:27.878Z,98923.86
2018-11-23T18:17:58.423Z,98931.05
2018-11-23T18:20:27.519Z,98927.06
2018-11-23T18:23:01.234Z,98931.63
2018-11-23T18:25:32.673Z,98929.62
2018-11-23T18:28:02.163Z,98934.02
2018-11-23T18:30:34.719Z,98927.79
2018-11-23T18:33:05.576Z,98921.39
2018-11-23T18:35:34.036Z,98906.27
2018-11-23T18:38:02.255Z,98904.61
2018-11-23T18:40:36.975Z,98904.48
2018-11-23T18:42:58.651Z,98908.70
2018-11-23T18:45:26.838Z,98900.18
2018-11-23T18:47:55.028Z,98897.75
2018-11-23T18:50:23.222Z,98899.33
2018-11-23T18:52:51.416Z,98893.02
2018-11-23T18:55:19.636Z,98900.11
2018-11-23T18:57:47.870Z,98904.17
2018-11-23T19:00:18.152Z,98901.36
2018-11-23T19:02:49.082Z,98908.30
2018-11-23T19:05:19.327Z,98902.30
2018-11-23T19:07:48.550Z,98899.89
2018-11-23T19:10:18.249Z,98890.51
2018-11-23T19:12:48.042Z,98883.76
2018-11-23T19:15:25.302Z,98873.21
2018-11-23T19:17:48.309Z,98867.25
2018-11-23T19:20:21.063Z,98877.02
2018-11-23T19:22:52.232Z,98870.09
2018-11-23T19:25:20.420Z,98870.02
2018-11-23T19:27:50.172Z,98868.84
2018-11-23T19:30:23.524Z,98864.52
2018-11-23T19:32:50.309Z,98854.52
2018-11-23T19:35:18.542Z,98857.79
2018-11-23T19:37:48.308Z,98854.04
2018-11-23T19:40:19.481Z,98849.97
2018-11-23T19:42:50.521Z,98851.83
2018-11-23T19:45:22.085Z,98859.23
2018-11-23T19:47:51.835Z,98854.37
2018-11-23T19:50:21.623Z,98849.58
2018-11-23T19:52:51.539Z,98843.14
2018-11-23T19:55:19.747Z,98837.54
2018-11-23T19:57:47.935Z,98836.51
2018-11-23T20:00:18.436Z,98832.85
2018-11-23T20:02:46.631Z,98833.94
2018-11-23T20:05:14.805Z,98839.72
2018-11-23T20:07:43.319Z,98836.69
2018-11-23T20:10:13.897Z,98838.70
2018-11-23T20:12:42.289Z,98839.61
2018-11-23T20:15:14.907Z,98844.59
2018-11-23T20:17:44.033Z,98837.89
2018-11-23T20:20:13.582Z,98832.94
2018-11-23T20:22:41.801Z,98833.71
2018-11-23T20:25:13.573Z,98821.32
2018-11-23T20:27:41.960Z,98816.66
2018-11-23T20:30:12.409Z,98814.69
2018-11-23T20:32:40.629Z,98809.66
2018-11-23T20:35:11.261Z,98806.50
2018-11-23T20:37:39.479Z,98805.83
2018-11-23T20:40:10.748Z,98805.62
2018-11-23T20:42:39.020Z,98797.14
2018-11-23T20:45:09.854Z,98806.68
2018-11-23T20:47:38.055Z,98796.00
2018-11-23T20:50:10.518Z,98799.03
2018-11-23T20:52:39.064Z,98791.77
2018-11-23T20:55:10.860Z,98781.70
2018-11-23T20:57:39.189Z,98778.95
2018-11-23T21:00:13.759Z,98784.59
2018-11-23T21:02:42.047Z,98786.14
2018-11-23T21:05:11.435Z,98776.98
2018-11-23T21:07:39.724Z,98778.14
2018-11-23T21:10:19.629Z,98784.19
2018-11-23T21:12:40.220Z,98777.45
2018-11-23T21:15:18.673Z,98778.98
2018-11-23T21:17:46.888Z,98778.81
2018-11-23T21:20:15.095Z,98779.14
2018-11-23T21:22:43.382Z,98768.41
2018-11-23T21:25:11.676Z,98767.77
2018-11-23T21:27:40.456Z,98767.30
2018-11-23T21:30:12.408Z,98759.05
2018-11-23T21:32:40.712Z,98749.08
2018-11-23T21:35:11.020Z,98745.59
2018-11-23T21:37:39.237Z,98743.01
2018-11-23T21:40:09.000Z,98745.75
2018-11-23T21:42:37.192Z,98745.55
2018-11-23T21:45:07.347Z,98750.92
2018-11-23T21:47:35.570Z,98750.78
2018-11-23T21:50:03.805Z,98750.55
2018-11-23T21:52:31.997Z,98747.41
2018-11-23T21:55:00.243Z,98746.55
2018-11-23T21:57:28.456Z,98742.55
2018-11-23T21:59:56.660Z,98743.73
2018-11-23T22:02:24.876Z,98737.65
2018-11-23T22:05:05.143Z,98736.52
2018-11-23T22:07:34.696Z,98733.00
2018-11-23T22:10:03.156Z,98732.85
2018-11-23T22:12:31.344Z,98729.00
2018-11-23T22:14:59.508Z,98729.27
2018-11-23T22:17:27.708Z,98725.02
2018-11-23T22:19:55.902Z,98718.32
2018-11-23T22:22:24.123Z,98715.33
2018-11-23T22:24:52.358Z,98714.28
2018-11-23T22:27:20.563Z,98716.63
2018-11-23T22:29:48.782Z,98711.45
2018-11-23T22:32:16.988Z,98709.30
2018-11-23T22:34:45.176Z,98705.81
2018-11-23T22:37:13.539Z,98703.27
2018-11-23T22:39:41.724Z,98710.48
2018-11-23T22:42:09.916Z,98709.17
2018-11-23T22:44:38.588Z,98713.80
2018-11-23T22:47:06.764Z,98714.58
2018-11-23T22:49:36.131Z,98716.62
2018-11-23T22:52:06.667Z,98712.44
2018-11-23T22:54:37.690Z,98710.46
2018-11-23T22:57:11.768Z,98712.50
2018-11-23T22:59:37.756Z,98709.62
2018-11-23T23:02:06.958Z,98707.53
2018-11-23T23:04:36.286Z,98718.39
2018-11-23T23:07:05.856Z,98710.05
2018-11-23T23:09:36.872Z,98715.98
2018-11-23T23:12:06.522Z,98710.40
2018-11-23T23:14:37.705Z,98706.80
2018-11-23T23:17:08.142Z,98702.94
2018-11-23T23:19:38.163Z,98700.73
2018-11-23T23:22:06.396Z,98699.50
2018-11-23T23:24:34.616Z,98699.78
2018-11-23T23:27:02.799Z,98700.73
2018-11-23T23:29:30.971Z,98698.27
2018-11-23T23:32:00.266Z,98705.45
2018-11-23T23:34:29.516Z,98709.18
2018-11-23T23:36:59.248Z,98711.47
2018-11-23T23:39:29.354Z,98709.22
2018-11-23T23:41:57.577Z,98720.67
2018-11-23T23:44:25.787Z,98724.27
2018-11-23T23:46:53.971Z,98724.59
2018-11-23T23:49:22.158Z,98729.43
2018-11-23T23:51:50.402Z,98734.63
2018-11-23T23:54:18.592Z,98728.27
2018-11-23T23:56:48.856Z,98726.38
2018-11-23T23:59:18.309Z,98725.07
